sensor_id;sensor_type;location;lat;lon;timestamp;P1;durP1;ratioP1;P2;durP2;ratioP2
24813;SDS011;12904;50.088;11.414;2023-06-24T00:01:14;51.15;;;6.32;;
24813;SDS011;12904;50.088;11.414;2023-06-24T00:03:40;9.25;;;4.72;;
24813;SDS011;12904;50.088;11.414;2023-06-24T00:06:11;10.07;;;5.07;;
24813;SDS011;12904;50.088;11.414;2023-06-24T00:08:43;36.47;;;5.80;;
24813;SDS011;12904;50.088;11.414;2023-06-24T00:11:10;20.83;;;5.97;;
24813;SDS011;12904;50.088;11.414;2023-06-24T00:13:36;17.08;;;6.95;;
24813;SDS011;12904;50.088;11.414;2023-06-24T00:16:02;29.60;;;7.13;;
24813;SDS011;12904;50.088;11.414;2023-06-24T00:18:28;35.85;;;7.88;;
24813;SDS011;12904;50.088;11.414;2023-06-24T00:20:54;28.17;;;7.72;;
24813;SDS011;12904;50.088;11.414;2023-06-24T00:23:22;37.80;;;9.25;;
24813;SDS011;12904;50.088;11.414;2023-06-24T00:25:50;60.03;;;10.30;;
24813;SDS011;12904;50.088;11.414;2023-06-24T00:28:16;25.10;;;8.68;;
24813;SDS011;12904;50.088;11.414;2023-06-24T00:30:41;41.45;;;8.65;;
24813;SDS011;12904;50.088;11.414;2023-06-24T00:33:07;68.45;;;10.10;;
24813;SDS011;12904;50.088;11.414;2023-06-24T00:35:36;39.20;;;8.25;;
24813;SDS011;12904;50.088;11.414;2023-06-24T00:38:02;49.30;;;9.57;;
24813;SDS011;12904;50.088;11.414;2023-06-24T00:40:28;30.02;;;9.32;;
24813;SDS011;12904;50.088;11.414;2023-06-24T00:42:54;46.88;;;9.95;;
24813;SDS011;12904;50.088;11.414;2023-06-24T00:45:20;33.70;;;9.32;;
24813;SDS011;12904;50.088;11.414;2023-06-24T00:47:47;37.80;;;10.30;;
24813;SDS011;12904;50.088;11.414;2023-06-24T00:50:14;39.15;;;9.43;;
24813;SDS011;12904;50.088;11.414;2023-06-24T00:52:41;37.35;;;9.30;;
24813;SDS011;12904;50.088;11.414;2023-06-24T00:55:08;39.92;;;9.70;;
24813;SDS011;12904;50.088;11.414;2023-06-24T00:57:45;29.55;;;8.50;;
24813;SDS011;12904;50.088;11.414;2023-06-24T01:00:16;43.47;;;8.38;;
24813;SDS011;12904;50.088;11.414;2023-06-24T01:02:44;19.50;;;7.93;;
24813;SDS011;12904;50.088;11.414;2023-06-24T01:05:12;29.60;;;8.40;;
24813;SDS011;12904;50.088;11.414;2023-06-24T01:07:39;19.65;;;7.78;;
24813;SDS011;12904;50.088;11.414;2023-06-24T01:10:06;27.73;;;8.00;;
24813;SDS011;12904;50.088;11.414;2023-06-24T01:12:35;23.70;;;8.65;;
24813;SDS011;12904;50.088;11.414;2023-06-24T01:15:08;49.03;;;9.75;;
24813;SDS011;12904;50.088;11.414;2023-06-24T01:17:35;22.55;;;7.50;;
24813;SDS011;12904;50.088;11.414;2023-06-24T01:23:31;23.45;;;9.63;;
24813;SDS011;12904;50.088;11.414;2023-06-24T01:36:31;60.15;;;13.45;;
24813;SDS011;12904;50.088;11.414;2023-06-24T01:39:03;42.60;;;12.70;;
24813;SDS011;12904;50.088;11.414;2023-06-24T01:41:32;142.60;;;16.73;;
24813;SDS011;12904;50.088;11.414;2023-06-24T01:44:04;87.03;;;14.65;;
24813;SDS011;12904;50.088;11.414;2023-06-24T01:46:30;74.60;;;14.15;;
24813;SDS011;12904;50.088;11.414;2023-06-24T01:48:58;76.53;;;15.13;;
24813;SDS011;12904;50.088;11.414;2023-06-24T01:51:27;103.32;;;15.80;;
24813;SDS011;12904;50.088;11.414;2023-06-24T01:54:00;106.30;;;16.33;;
24813;SDS011;12904;50.088;11.414;2023-06-24T01:56:29;48.20;;;13.25;;
24813;SDS011;12904;50.088;11.414;2023-06-24T01:58:58;87.70;;;16.05;;
24813;SDS011;12904;50.088;11.414;2023-06-24T02:01:26;74.57;;;13.95;;
24813;SDS011;12904;50.088;11.414;2023-06-24T02:03:52;83.03;;;14.80;;
24813;SDS011;12904;50.088;11.414;2023-06-24T02:06:20;67.20;;;14.30;;
24813;SDS011;12904;50.088;11.414;2023-06-24T02:08:48;59.78;;;14.65;;
24813;SDS011;12904;50.088;11.414;2023-06-24T02:11:15;68.95;;;15.32;;
24813;SDS011;12904;50.088;11.414;2023-06-24T02:13:42;84.38;;;15.95;;
24813;SDS011;12904;50.088;11.414;2023-06-24T02:16:08;99.15;;;15.23;;
24813;SDS011;12904;50.088;11.414;2023-06-24T02:18:37;120.00;;;17.15;;
24813;SDS011;12904;50.088;11.414;2023-06-24T02:21:07;89.55;;;13.85;;
24813;SDS011;12904;50.088;11.414;2023-06-24T02:23:33;90.95;;;13.55;;
24813;SDS011;12904;50.088;11.414;2023-06-24T02:26:01;56.42;;;14.20;;
24813;SDS011;12904;50.088;11.414;2023-06-24T02:28:28;56.60;;;13.25;;
24813;SDS011;12904;50.088;11.414;2023-06-24T02:30:55;73.82;;;14.60;;
24813;SDS011;12904;50.088;11.414;2023-06-24T02:33:22;64.63;;;14.85;;
24813;SDS011;12904;50.088;11.414;2023-06-24T02:35:48;85.95;;;14.95;;
24813;SDS011;12904;50.088;11.414;2023-06-24T02:38:13;109.47;;;15.75;;
24813;SDS011;12904;50.088;11.414;2023-06-24T02:40:39;169.07;;;17.17;;
24813;SDS011;12904;50.088;11.414;2023-06-24T02:43:05;102.13;;;14.90;;
24813;SDS011;12904;50.088;11.414;2023-06-24T02:45:30;68.85;;;14.48;;
24813;SDS011;12904;50.088;11.414;2023-06-24T02:47:56;146.18;;;18.77;;
24813;SDS011;12904;50.088;11.414;2023-06-24T02:50:23;235.13;;;26.63;;
24813;SDS011;12904;50.088;11.414;2023-06-24T02:52:51;84.63;;;19.58;;
24813;SDS011;12904;50.088;11.414;2023-06-24T02:55:17;185.27;;;21.92;;
24813;SDS011;12904;50.088;11.414;2023-06-24T02:57:43;110.45;;;19.52;;
24813;SDS011;12904;50.088;11.414;2023-06-24T03:00:10;147.80;;;20.27;;
24813;SDS011;12904;50.088;11.414;2023-06-24T03:02:40;132.93;;;20.85;;
24813;SDS011;12904;50.088;11.414;2023-06-24T03:05:07;224.57;;;23.25;;
24813;SDS011;12904;50.088;11.414;2023-06-24T03:07:35;138.15;;;19.98;;
24813;SDS011;12904;50.088;11.414;2023-06-24T03:10:02;237.77;;;25.25;;
24813;SDS011;12904;50.088;11.414;2023-06-24T03:12:30;83.75;;;18.90;;
24813;SDS011;12904;50.088;11.414;2023-06-24T03:14:56;152.70;;;19.02;;
24813;SDS011;12904;50.088;11.414;2023-06-24T03:17:21;39.35;;;17.48;;
24813;SDS011;12904;50.088;11.414;2023-06-24T03:19:47;118.53;;;22.83;;
24813;SDS011;12904;50.088;11.414;2023-06-24T03:22:13;60.25;;;18.33;;
24813;SDS011;12904;50.088;11.414;2023-06-24T03:24:38;106.65;;;19.73;;
24813;SDS011;12904;50.088;11.414;2023-06-24T03:27:04;153.82;;;22.70;;
24813;SDS011;12904;50.088;11.414;2023-06-24T03:29:30;102.35;;;19.60;;
24813;SDS011;12904;50.088;11.414;2023-06-24T03:31:55;158.25;;;20.27;;
24813;SDS011;12904;50.088;11.414;2023-06-24T03:34:21;86.63;;;21.42;;
24813;SDS011;12904;50.088;11.414;2023-06-24T03:36:47;85.68;;;18.77;;
24813;SDS011;12904;50.088;11.414;2023-06-24T03:39:12;101.85;;;18.70;;
24813;SDS011;12904;50.088;11.414;2023-06-24T03:41:38;126.10;;;20.50;;
24813;SDS011;12904;50.088;11.414;2023-06-24T03:44:04;117.25;;;19.77;;
24813;SDS011;12904;50.088;11.414;2023-06-24T03:46:29;153.95;;;21.27;;
24813;SDS011;12904;50.088;11.414;2023-06-24T03:48:58;139.50;;;19.35;;
24813;SDS011;12904;50.088;11.414;2023-06-24T03:51:25;97.60;;;18.85;;
24813;SDS011;12904;50.088;11.414;2023-06-24T03:53:50;100.90;;;18.98;;
24813;SDS011;12904;50.088;11.414;2023-06-24T03:56:16;78.68;;;20.75;;
24813;SDS011;12904;50.088;11.414;2023-06-24T03:58:42;69.63;;;19.20;;
24813;SDS011;12904;50.088;11.414;2023-06-24T04:01:09;106.82;;;20.88;;
24813;SDS011;12904;50.088;11.414;2023-06-24T04:03:35;47.20;;;16.80;;
24813;SDS011;12904;50.088;11.414;2023-06-24T04:06:00;149.38;;;23.50;;
24813;SDS011;12904;50.088;11.414;2023-06-24T04:08:29;135.48;;;20.30;;
24813;SDS011;12904;50.088;11.414;2023-06-24T04:10:55;98.07;;;18.95;;
24813;SDS011;12904;50.088;11.414;2023-06-24T04:13:21;119.38;;;18.38;;
24813;SDS011;12904;50.088;11.414;2023-06-24T04:15:47;101.72;;;20.55;;
24813;SDS011;12904;50.088;11.414;2023-06-24T04:18:12;101.20;;;18.48;;
24813;SDS011;12904;50.088;11.414;2023-06-24T04:20:39;137.95;;;19.55;;
24813;SDS011;12904;50.088;11.414;2023-06-24T04:23:04;106.40;;;20.63;;
24813;SDS011;12904;50.088;11.414;2023-06-24T04:25:35;134.48;;;20.88;;
24813;SDS011;12904;50.088;11.414;2023-06-24T04:28:02;171.23;;;25.70;;
24813;SDS011;12904;50.088;11.414;2023-06-24T04:30:29;170.02;;;24.85;;
24813;SDS011;12904;50.088;11.414;2023-06-24T04:32:55;58.20;;;18.98;;
24813;SDS011;12904;50.088;11.414;2023-06-24T04:35:21;63.75;;;20.17;;
24813;SDS011;12904;50.088;11.414;2023-06-24T04:37:47;109.50;;;24.08;;
24813;SDS011;12904;50.088;11.414;2023-06-24T04:40:16;87.88;;;20.92;;
24813;SDS011;12904;50.088;11.414;2023-06-24T04:42:42;85.05;;;20.60;;
24813;SDS011;12904;50.088;11.414;2023-06-24T04:45:08;119.50;;;19.35;;
24813;SDS011;12904;50.088;11.414;2023-06-24T04:47:34;102.45;;;17.80;;
24813;SDS011;12904;50.088;11.414;2023-06-24T04:50:00;127.05;;;20.48;;
24813;SDS011;12904;50.088;11.414;2023-06-24T04:52:25;125.75;;;21.05;;
24813;SDS011;12904;50.088;11.414;2023-06-24T04:54:51;106.82;;;18.73;;
24813;SDS011;12904;50.088;11.414;2023-06-24T04:57:26;62.33;;;16.25;;
24813;SDS011;12904;50.088;11.414;2023-06-24T04:59:53;84.43;;;17.80;;
24813;SDS011;12904;50.088;11.414;2023-06-24T05:02:19;100.15;;;17.80;;
24813;SDS011;12904;50.088;11.414;2023-06-24T05:04:45;101.90;;;16.60;;
24813;SDS011;12904;50.088;11.414;2023-06-24T05:07:11;97.78;;;14.50;;
24813;SDS011;12904;50.088;11.414;2023-06-24T05:09:37;94.63;;;15.88;;
24813;SDS011;12904;50.088;11.414;2023-06-24T05:12:06;134.93;;;14.80;;
24813;SDS011;12904;50.088;11.414;2023-06-24T05:14:35;133.15;;;16.70;;
24813;SDS011;12904;50.088;11.414;2023-06-24T05:17:02;127.90;;;17.13;;
24813;SDS011;12904;50.088;11.414;2023-06-24T05:19:31;99.38;;;18.02;;
24813;SDS011;12904;50.088;11.414;2023-06-24T05:21:57;91.35;;;15.52;;
24813;SDS011;12904;50.088;11.414;2023-06-24T05:24:22;107.07;;;15.48;;
24813;SDS011;12904;50.088;11.414;2023-06-24T05:26:48;106.03;;;14.18;;
24813;SDS011;12904;50.088;11.414;2023-06-24T05:29:15;110.63;;;15.77;;
24813;SDS011;12904;50.088;11.414;2023-06-24T05:31:42;110.60;;;15.43;;
24813;SDS011;12904;50.088;11.414;2023-06-24T05:34:08;73.55;;;15.25;;
24813;SDS011;12904;50.088;11.414;2023-06-24T05:36:33;117.90;;;17.42;;
24813;SDS011;12904;50.088;11.414;2023-06-24T05:38:59;112.25;;;17.88;;
24813;SDS011;12904;50.088;11.414;2023-06-24T05:41:25;127.88;;;17.63;;
24813;SDS011;12904;50.088;11.414;2023-06-24T05:44:01;88.63;;;17.40;;
24813;SDS011;12904;50.088;11.414;2023-06-24T05:46:27;85.32;;;16.70;;
24813;SDS011;12904;50.088;11.414;2023-06-24T05:48:53;103.20;;;15.73;;
24813;SDS011;12904;50.088;11.414;2023-06-24T05:51:19;70.38;;;13.75;;
24813;SDS011;12904;50.088;11.414;2023-06-24T05:53:44;81.72;;;14.23;;
24813;SDS011;12904;50.088;11.414;2023-06-24T05:56:10;96.50;;;15.50;;
24813;SDS011;12904;50.088;11.414;2023-06-24T05:58:35;148.00;;;18.00;;
24813;SDS011;12904;50.088;11.414;2023-06-24T06:01:01;122.30;;;17.20;;
24813;SDS011;12904;50.088;11.414;2023-06-24T06:03:26;29.52;;;14.57;;
24813;SDS011;12904;50.088;11.414;2023-06-24T06:05:52;66.88;;;13.73;;
24813;SDS011;12904;50.088;11.414;2023-06-24T06:08:18;89.18;;;14.43;;
24813;SDS011;12904;50.088;11.414;2023-06-24T06:10:43;38.85;;;12.88;;
24813;SDS011;12904;50.088;11.414;2023-06-24T06:13:09;25.25;;;12.68;;
24813;SDS011;12904;50.088;11.414;2023-06-24T06:15:34;25.13;;;12.02;;
24813;SDS011;12904;50.088;11.414;2023-06-24T06:18:00;40.50;;;12.40;;
24813;SDS011;12904;50.088;11.414;2023-06-24T06:20:26;34.95;;;12.55;;
24813;SDS011;12904;50.088;11.414;2023-06-24T06:22:51;18.42;;;11.63;;
24813;SDS011;12904;50.088;11.414;2023-06-24T06:25:17;18.42;;;11.90;;
24813;SDS011;12904;50.088;11.414;2023-06-24T06:27:42;12.95;;;11.63;;
24813;SDS011;12904;50.088;11.414;2023-06-24T06:30:08;17.58;;;10.85;;
24813;SDS011;12904;50.088;11.414;2023-06-24T06:32:34;12.20;;;11.02;;
24813;SDS011;12904;50.088;11.414;2023-06-24T06:35:00;13.32;;;11.85;;
24813;SDS011;12904;50.088;11.414;2023-06-24T06:37:25;12.90;;;11.80;;
24813;SDS011;12904;50.088;11.414;2023-06-24T06:39:51;13.48;;;12.18;;
24813;SDS011;12904;50.088;11.414;2023-06-24T06:42:17;13.90;;;12.02;;
24813;SDS011;12904;50.088;11.414;2023-06-24T06:44:43;13.15;;;12.05;;
24813;SDS011;12904;50.088;11.414;2023-06-24T06:47:08;13.15;;;12.05;;
24813;SDS011;12904;50.088;11.414;2023-06-24T06:49:34;12.48;;;11.52;;
24813;SDS011;12904;50.088;11.414;2023-06-24T06:52:00;12.63;;;11.35;;
24813;SDS011;12904;50.088;11.414;2023-06-24T06:54:25;14.40;;;11.27;;
24813;SDS011;12904;50.088;11.414;2023-06-24T06:56:51;12.98;;;11.98;;
24813;SDS011;12904;50.088;11.414;2023-06-24T06:59:17;12.77;;;11.57;;
24813;SDS011;12904;50.088;11.414;2023-06-24T07:01:43;12.68;;;11.15;;
24813;SDS011;12904;50.088;11.414;2023-06-24T07:04:08;12.10;;;10.88;;
24813;SDS011;12904;50.088;11.414;2023-06-24T07:06:34;16.08;;;11.20;;
24813;SDS011;12904;50.088;11.414;2023-06-24T07:08:59;14.32;;;11.88;;
24813;SDS011;12904;50.088;11.414;2023-06-24T07:11:25;14.70;;;11.10;;
24813;SDS011;12904;50.088;11.414;2023-06-24T07:13:51;12.73;;;10.95;;
24813;SDS011;12904;50.088;11.414;2023-06-24T07:16:17;27.55;;;10.90;;
24813;SDS011;12904;50.088;11.414;2023-06-24T07:18:43;11.27;;;10.00;;
24813;SDS011;12904;50.088;11.414;2023-06-24T07:21:08;11.27;;;10.38;;
24813;SDS011;12904;50.088;11.414;2023-06-24T07:23:34;11.45;;;10.40;;
24813;SDS011;12904;50.088;11.414;2023-06-24T07:26:00;16.08;;;12.07;;
24813;SDS011;12904;50.088;11.414;2023-06-24T07:28:25;11.68;;;10.85;;
24813;SDS011;12904;50.088;11.414;2023-06-24T07:30:51;11.45;;;10.45;;
24813;SDS011;12904;50.088;11.414;2023-06-24T07:33:16;12.75;;;11.75;;
24813;SDS011;12904;50.088;11.414;2023-06-24T07:35:42;13.32;;;12.05;;
24813;SDS011;12904;50.088;11.414;2023-06-24T07:38:07;12.95;;;11.98;;
24813;SDS011;12904;50.088;11.414;2023-06-24T07:40:33;12.73;;;11.52;;
24813;SDS011;12904;50.088;11.414;2023-06-24T07:42:58;19.08;;;12.07;;
24813;SDS011;12904;50.088;11.414;2023-06-24T07:45:24;14.82;;;13.55;;
24813;SDS011;12904;50.088;11.414;2023-06-24T07:47:50;14.52;;;13.43;;
24813;SDS011;12904;50.088;11.414;2023-06-24T07:50:16;14.43;;;13.00;;
24813;SDS011;12904;50.088;11.414;2023-06-24T07:52:41;13.25;;;12.15;;
24813;SDS011;12904;50.088;11.414;2023-06-24T07:55:07;13.45;;;12.40;;
24813;SDS011;12904;50.088;11.414;2023-06-24T07:57:33;13.45;;;12.45;;
24813;SDS011;12904;50.088;11.414;2023-06-24T07:59:58;13.65;;;10.82;;
24813;SDS011;12904;50.088;11.414;2023-06-24T08:02:24;11.55;;;10.73;;
24813;SDS011;12904;50.088;11.414;2023-06-24T08:04:51;11.55;;;10.73;;
24813;SDS011;12904;50.088;11.414;2023-06-24T08:07:17;13.98;;;12.48;;
24813;SDS011;12904;50.088;11.414;2023-06-24T08:09:42;11.23;;;10.23;;
24813;SDS011;12904;50.088;11.414;2023-06-24T08:12:08;11.77;;;10.63;;
24813;SDS011;12904;50.088;11.414;2023-06-24T08:14:34;12.73;;;11.57;;
24813;SDS011;12904;50.088;11.414;2023-06-24T08:17:00;10.10;;;9.38;;
24813;SDS011;12904;50.088;11.414;2023-06-24T08:19:26;11.10;;;10.10;;
24813;SDS011;12904;50.088;11.414;2023-06-24T08:21:52;10.45;;;9.55;;
24813;SDS011;12904;50.088;11.414;2023-06-24T08:24:18;11.77;;;10.82;;
24813;SDS011;12904;50.088;11.414;2023-06-24T08:26:44;11.35;;;10.27;;
24813;SDS011;12904;50.088;11.414;2023-06-24T08:29:09;10.88;;;9.77;;
24813;SDS011;12904;50.088;11.414;2023-06-24T08:31:35;11.15;;;10.27;;
24813;SDS011;12904;50.088;11.414;2023-06-24T08:34:01;10.40;;;9.60;;
24813;SDS011;12904;50.088;11.414;2023-06-24T08:36:31;11.07;;;9.77;;
24813;SDS011;12904;50.088;11.414;2023-06-24T08:38:56;10.52;;;9.73;;
24813;SDS011;12904;50.088;11.414;2023-06-24T08:41:22;9.55;;;8.85;;
24813;SDS011;12904;50.088;11.414;2023-06-24T08:43:50;11.60;;;10.75;;
24813;SDS011;12904;50.088;11.414;2023-06-24T08:46:16;11.38;;;10.48;;
24813;SDS011;12904;50.088;11.414;2023-06-24T08:48:43;10.32;;;9.55;;
24813;SDS011;12904;50.088;11.414;2023-06-24T08:51:11;10.32;;;9.45;;
24813;SDS011;12904;50.088;11.414;2023-06-24T08:53:41;10.52;;;9.45;;
24813;SDS011;12904;50.088;11.414;2023-06-24T08:56:08;11.00;;;10.10;;
24813;SDS011;12904;50.088;11.414;2023-06-24T08:58:35;10.60;;;9.70;;
24813;SDS011;12904;50.088;11.414;2023-06-24T09:01:01;10.07;;;9.32;;
24813;SDS011;12904;50.088;11.414;2023-06-24T09:03:27;10.32;;;8.68;;
24813;SDS011;12904;50.088;11.414;2023-06-24T09:05:53;7.93;;;7.10;;
24813;SDS011;12904;50.088;11.414;2023-06-24T09:08:19;7.75;;;7.10;;
24813;SDS011;12904;50.088;11.414;2023-06-24T09:10:46;9.10;;;6.57;;
24813;SDS011;12904;50.088;11.414;2023-06-24T09:13:19;10.88;;;5.82;;
24813;SDS011;12904;50.088;11.414;2023-06-24T09:15:45;6.43;;;5.45;;
24813;SDS011;12904;50.088;11.414;2023-06-24T09:18:10;6.35;;;5.07;;
24813;SDS011;12904;50.088;11.414;2023-06-24T09:20:37;6.38;;;5.80;;
24813;SDS011;12904;50.088;11.414;2023-06-24T09:23:09;7.60;;;5.78;;
24813;SDS011;12904;50.088;11.414;2023-06-24T09:25:35;6.03;;;5.43;;
24813;SDS011;12904;50.088;11.414;2023-06-24T09:28:01;6.28;;;5.20;;
24813;SDS011;12904;50.088;11.414;2023-06-24T09:30:28;6.68;;;6.00;;
24813;SDS011;12904;50.088;11.414;2023-06-24T09:32:54;6.63;;;5.68;;
24813;SDS011;12904;50.088;11.414;2023-06-24T09:35:24;5.43;;;4.90;;
24813;SDS011;12904;50.088;11.414;2023-06-24T09:37:51;8.20;;;4.63;;
24813;SDS011;12904;50.088;11.414;2023-06-24T09:40:21;7.65;;;5.15;;
24813;SDS011;12904;50.088;11.414;2023-06-24T09:42:55;5.03;;;4.07;;
24813;SDS011;12904;50.088;11.414;2023-06-24T09:45:25;5.07;;;4.68;;
24813;SDS011;12904;50.088;11.414;2023-06-24T09:47:52;5.57;;;5.00;;
24813;SDS011;12904;50.088;11.414;2023-06-24T09:50:19;5.72;;;5.32;;
24813;SDS011;12904;50.088;11.414;2023-06-24T09:52:45;5.35;;;4.85;;
24813;SDS011;12904;50.088;11.414;2023-06-24T09:55:14;8.60;;;4.90;;
24813;SDS011;12904;50.088;11.414;2023-06-24T09:57:43;5.90;;;5.30;;
24813;SDS011;12904;50.088;11.414;2023-06-24T10:00:14;5.55;;;5.03;;
24813;SDS011;12904;50.088;11.414;2023-06-24T10:02:41;4.90;;;4.50;;
24813;SDS011;12904;50.088;11.414;2023-06-24T10:05:08;5.72;;;4.95;;
24813;SDS011;12904;50.088;11.414;2023-06-24T10:07:34;8.98;;;5.47;;
24813;SDS011;12904;50.088;11.414;2023-06-24T10:10:01;4.55;;;4.10;;
24813;SDS011;12904;50.088;11.414;2023-06-24T10:12:30;4.72;;;4.32;;
24813;SDS011;12904;50.088;11.414;2023-06-24T10:14:57;7.57;;;4.05;;
24813;SDS011;12904;50.088;11.414;2023-06-24T10:17:24;5.07;;;4.30;;
24813;SDS011;12904;50.088;11.414;2023-06-24T10:19:51;4.85;;;4.45;;
24813;SDS011;12904;50.088;11.414;2023-06-24T10:22:18;6.43;;;5.20;;
24813;SDS011;12904;50.088;11.414;2023-06-24T10:24:48;6.67;;;4.67;;
24813;SDS011;12904;50.088;11.414;2023-06-24T10:27:16;6.63;;;4.45;;
24813;SDS011;12904;50.088;11.414;2023-06-24T10:29:46;4.63;;;4.22;;
24813;SDS011;12904;50.088;11.414;2023-06-24T10:32:13;4.40;;;4.00;;
24813;SDS011;12904;50.088;11.414;2023-06-24T10:34:40;4.28;;;3.97;;
24813;SDS011;12904;50.088;11.414;2023-06-24T10:44:51;5.45;;;3.90;;
24813;SDS011;12904;50.088;11.414;2023-06-24T10:47:18;4.55;;;3.95;;
24813;SDS011;12904;50.088;11.414;2023-06-24T10:49:45;4.50;;;4.20;;
24813;SDS011;12904;50.088;11.414;2023-06-24T10:52:11;5.53;;;5.03;;
24813;SDS011;12904;50.088;11.414;2023-06-24T10:54:37;7.20;;;4.07;;
24813;SDS011;12904;50.088;11.414;2023-06-24T10:57:04;4.45;;;3.72;;
24813;SDS011;12904;50.088;11.414;2023-06-24T10:59:49;4.30;;;3.90;;
24813;SDS011;12904;50.088;11.414;2023-06-24T11:02:19;4.07;;;3.72;;
24813;SDS011;12904;50.088;11.414;2023-06-24T11:04:47;4.20;;;3.80;;
24813;SDS011;12904;50.088;11.414;2023-06-24T11:07:12;3.83;;;3.53;;
24813;SDS011;12904;50.088;11.414;2023-06-24T11:09:42;4.20;;;3.85;;
24813;SDS011;12904;50.088;11.414;2023-06-24T11:12:13;4.03;;;3.63;;
24813;SDS011;12904;50.088;11.414;2023-06-24T11:14:38;3.83;;;3.50;;
24813;SDS011;12904;50.088;11.414;2023-06-24T11:17:05;3.92;;;3.58;;
24813;SDS011;12904;50.088;11.414;2023-06-24T11:19:30;3.90;;;3.50;;
24813;SDS011;12904;50.088;11.414;2023-06-24T11:22:00;4.93;;;3.42;;
24813;SDS011;12904;50.088;11.414;2023-06-24T11:24:26;4.35;;;3.95;;
24813;SDS011;12904;50.088;11.414;2023-06-24T11:26:52;3.60;;;3.30;;
24813;SDS011;12904;50.088;11.414;2023-06-24T11:29:18;5.50;;;3.47;;
24813;SDS011;12904;50.088;11.414;2023-06-24T11:31:46;4.28;;;3.13;;
24813;SDS011;12904;50.088;11.414;2023-06-24T11:34:13;4.65;;;3.67;;
24813;SDS011;12904;50.088;11.414;2023-06-24T11:36:38;4.30;;;3.70;;
24813;SDS011;12904;50.088;11.414;2023-06-24T11:39:04;4.47;;;3.80;;
24813;SDS011;12904;50.088;11.414;2023-06-24T11:41:30;5.07;;;3.90;;
24813;SDS011;12904;50.088;11.414;2023-06-24T11:43:57;4.10;;;3.60;;
24813;SDS011;12904;50.088;11.414;2023-06-24T11:46:29;4.20;;;3.75;;
24813;SDS011;12904;50.088;11.414;2023-06-24T11:49:03;3.88;;;3.58;;
24813;SDS011;12904;50.088;11.414;2023-06-24T11:51:30;3.97;;;3.67;;
24813;SDS011;12904;50.088;11.414;2023-06-24T11:53:58;4.00;;;3.60;;
24813;SDS011;12904;50.088;11.414;2023-06-24T11:56:38;3.72;;;3.42;;
24813;SDS011;12904;50.088;11.414;2023-06-24T11:59:14;3.95;;;3.45;;
24813;SDS011;12904;50.088;11.414;2023-06-24T12:01:54;3.70;;;3.40;;
24813;SDS011;12904;50.088;11.414;2023-06-24T12:04:21;4.47;;;3.55;;
24813;SDS011;12904;50.088;11.414;2023-06-24T12:06:53;4.00;;;3.60;;
24813;SDS011;12904;50.088;11.414;2023-06-24T12:09:18;9.07;;;3.28;;
24813;SDS011;12904;50.088;11.414;2023-06-24T12:11:44;4.82;;;3.08;;
24813;SDS011;12904;50.088;11.414;2023-06-24T12:14:10;3.33;;;3.00;;
24813;SDS011;12904;50.088;11.414;2023-06-24T12:16:36;3.60;;;3.30;;
24813;SDS011;12904;50.088;11.414;2023-06-24T12:19:03;3.80;;;3.40;;
24813;SDS011;12904;50.088;11.414;2023-06-24T12:21:28;6.38;;;3.55;;
24813;SDS011;12904;50.088;11.414;2023-06-24T12:23:54;4.45;;;3.55;;
24813;SDS011;12904;50.088;11.414;2023-06-24T12:26:20;3.50;;;3.20;;
24813;SDS011;12904;50.088;11.414;2023-06-24T12:28:45;5.10;;;3.15;;
24813;SDS011;12904;50.088;11.414;2023-06-24T12:31:11;4.38;;;3.03;;
24813;SDS011;12904;50.088;11.414;2023-06-24T12:33:36;5.22;;;3.17;;
24813;SDS011;12904;50.088;11.414;2023-06-24T12:36:02;3.60;;;3.30;;
24813;SDS011;12904;50.088;11.414;2023-06-24T12:38:28;3.45;;;3.13;;
24813;SDS011;12904;50.088;11.414;2023-06-24T12:40:54;3.40;;;3.13;;
24813;SDS011;12904;50.088;11.414;2023-06-24T12:43:19;3.53;;;3.17;;
24813;SDS011;12904;50.088;11.414;2023-06-24T12:45:45;3.95;;;3.60;;
24813;SDS011;12904;50.088;11.414;2023-06-24T12:48:11;4.07;;;3.67;;
24813;SDS011;12904;50.088;11.414;2023-06-24T12:50:38;4.18;;;3.28;;
24813;SDS011;12904;50.088;11.414;2023-06-24T12:53:03;3.78;;;3.47;;
24813;SDS011;12904;50.088;11.414;2023-06-24T12:55:29;10.43;;;3.35;;
24813;SDS011;12904;50.088;11.414;2023-06-24T12:57:55;4.03;;;3.17;;
24813;SDS011;12904;50.088;11.414;2023-06-24T13:00:22;4.15;;;3.45;;
24813;SDS011;12904;50.088;11.414;2023-06-24T13:02:49;3.92;;;3.20;;
24813;SDS011;12904;50.088;11.414;2023-06-24T13:05:15;3.88;;;3.47;;
24813;SDS011;12904;50.088;11.414;2023-06-24T13:07:41;3.90;;;2.55;;
24813;SDS011;12904;50.088;11.414;2023-06-24T13:10:07;3.10;;;2.90;;
24813;SDS011;12904;50.088;11.414;2023-06-24T13:12:34;3.05;;;2.72;;
24813;SDS011;12904;50.088;11.414;2023-06-24T13:15:00;3.30;;;2.72;;
24813;SDS011;12904;50.088;11.414;2023-06-24T13:17:26;3.30;;;2.95;;
24813;SDS011;12904;50.088;11.414;2023-06-24T13:19:52;3.40;;;3.08;;
24813;SDS011;12904;50.088;11.414;2023-06-24T13:22:18;3.40;;;3.10;;
24813;SDS011;12904;50.088;11.414;2023-06-24T13:24:44;6.47;;;3.00;;
24813;SDS011;12904;50.088;11.414;2023-06-24T13:27:10;5.30;;;2.97;;
24813;SDS011;12904;50.088;11.414;2023-06-24T13:29:35;6.68;;;2.70;;
24813;SDS011;12904;50.088;11.414;2023-06-24T13:32:01;4.25;;;2.95;;
24813;SDS011;12904;50.088;11.414;2023-06-24T13:34:27;3.58;;;3.28;;
24813;SDS011;12904;50.088;11.414;2023-06-24T13:36:53;2.97;;;2.78;;
24813;SDS011;12904;50.088;11.414;2023-06-24T13:39:19;2.88;;;2.67;;
24813;SDS011;12904;50.088;11.414;2023-06-24T13:41:48;4.40;;;3.20;;
24813;SDS011;12904;50.088;11.414;2023-06-24T13:44:14;3.10;;;2.80;;
24813;SDS011;12904;50.088;11.414;2023-06-24T13:46:40;6.15;;;2.95;;
24813;SDS011;12904;50.088;11.414;2023-06-24T13:49:06;3.60;;;2.60;;
24813;SDS011;12904;50.088;11.414;2023-06-24T13:51:32;3.70;;;2.58;;
24813;SDS011;12904;50.088;11.414;2023-06-24T13:53:59;2.60;;;2.40;;
24813;SDS011;12904;50.088;11.414;2023-06-24T13:56:25;4.10;;;3.00;;
24813;SDS011;12904;50.088;11.414;2023-06-24T13:58:51;3.10;;;2.90;;
24813;SDS011;12904;50.088;11.414;2023-06-24T14:01:18;3.40;;;2.50;;
24813;SDS011;12904;50.088;11.414;2023-06-24T14:03:44;2.55;;;2.35;;
24813;SDS011;12904;50.088;11.414;2023-06-24T14:06:10;2.70;;;2.45;;
24813;SDS011;12904;50.088;11.414;2023-06-24T14:08:40;2.67;;;2.47;;
24813;SDS011;12904;50.088;11.414;2023-06-24T14:11:06;4.43;;;2.38;;
24813;SDS011;12904;50.088;11.414;2023-06-24T14:13:31;3.97;;;2.92;;
24813;SDS011;12904;50.088;11.414;2023-06-24T14:15:57;2.85;;;2.58;;
24813;SDS011;12904;50.088;11.414;2023-06-24T14:18:23;2.55;;;2.35;;
24813;SDS011;12904;50.088;11.414;2023-06-24T14:20:50;2.28;;;2.08;;
24813;SDS011;12904;50.088;11.414;2023-06-24T14:23:16;3.58;;;1.98;;
24813;SDS011;12904;50.088;11.414;2023-06-24T14:25:41;2.40;;;2.20;;
24813;SDS011;12904;50.088;11.414;2023-06-24T14:28:07;2.40;;;2.13;;
24813;SDS011;12904;50.088;11.414;2023-06-24T14:30:33;2.92;;;2.45;;
24813;SDS011;12904;50.088;11.414;2023-06-24T14:32:59;2.75;;;2.30;;
24813;SDS011;12904;50.088;11.414;2023-06-24T14:35:25;6.80;;;2.83;;
24813;SDS011;12904;50.088;11.414;2023-06-24T14:37:51;2.55;;;2.35;;